X  Sluiten METAR luchtvaart weer gegevens         LYNI Nis Airport
Temperatuur
7°C Temperatuur
7°C Dauwpunt
100% Vochtigheid



Wind
1 M/S
3 MPH
6 KM/U
3 KTS



260°
W
Huidig weer

Cloudy with Rain Bewolkt , Regen
Luchtdruk 1011 (hPa) - 29.87 (inHg)
Zicht 5 (mijl) - 8 (km)
Vliegveld
Vliegveld code LYNI

Locatie : Nis Airport
Afstand: 63 (km)

Metar:
METAR LYNI 211500Z 26003KT 210V300 8000 RA SCT013 BKN027 OVC070 07/07 Q1011 TEMPO 4000 BKN010 BKN027

Tijd: 21-04-2024 17:00 CEST